sensor_id;sensor_type;location;lat;lon;timestamp;P1;durP1;ratioP1;P2;durP2;ratioP2
12966;SDS011;6548;49.996;8.238;2024-01-07T00:02:16;3.38;;;2.38;;
12966;SDS011;6548;49.996;8.238;2024-01-07T00:04:44;4.75;;;2.90;;
12966;SDS011;6548;49.996;8.238;2024-01-07T00:07:09;5.68;;;2.65;;
12966;SDS011;6548;49.996;8.238;2024-01-07T00:09:35;4.53;;;2.38;;
12966;SDS011;6548;49.996;8.238;2024-01-07T00:12:00;4.55;;;2.80;;
12966;SDS011;6548;49.996;8.238;2024-01-07T00:14:26;4.68;;;2.83;;
12966;SDS011;6548;49.996;8.238;2024-01-07T00:16:51;4.03;;;2.22;;
12966;SDS011;6548;49.996;8.238;2024-01-07T00:19:17;5.82;;;3.15;;
12966;SDS011;6548;49.996;8.238;2024-01-07T00:21:42;4.25;;;2.70;;
12966;SDS011;6548;49.996;8.238;2024-01-07T00:24:08;5.68;;;3.22;;
12966;SDS011;6548;49.996;8.238;2024-01-07T00:26:33;6.15;;;3.35;;
12966;SDS011;6548;49.996;8.238;2024-01-07T00:28:59;7.38;;;3.95;;
12966;SDS011;6548;49.996;8.238;2024-01-07T00:31:24;6.20;;;3.97;;
12966;SDS011;6548;49.996;8.238;2024-01-07T00:33:50;6.03;;;3.38;;
12966;SDS011;6548;49.996;8.238;2024-01-07T00:36:15;7.18;;;3.78;;
12966;SDS011;6548;49.996;8.238;2024-01-07T00:38:41;6.03;;;3.00;;
12966;SDS011;6548;49.996;8.238;2024-01-07T00:41:07;6.38;;;3.67;;
12966;SDS011;6548;49.996;8.238;2024-01-07T00:43:32;6.22;;;4.00;;
12966;SDS011;6548;49.996;8.238;2024-01-07T00:45:58;5.47;;;3.30;;
12966;SDS011;6548;49.996;8.238;2024-01-07T00:48:23;5.60;;;3.80;;
12966;SDS011;6548;49.996;8.238;2024-01-07T00:50:49;6.53;;;3.80;;
12966;SDS011;6548;49.996;8.238;2024-01-07T00:53:14;8.25;;;4.07;;
12966;SDS011;6548;49.996;8.238;2024-01-07T00:55:40;6.68;;;3.95;;
12966;SDS011;6548;49.996;8.238;2024-01-07T00:58:05;7.30;;;4.15;;
12966;SDS011;6548;49.996;8.238;2024-01-07T01:00:31;7.82;;;3.80;;
12966;SDS011;6548;49.996;8.238;2024-01-07T01:02:56;7.50;;;4.38;;
12966;SDS011;6548;49.996;8.238;2024-01-07T01:05:23;5.95;;;3.38;;
12966;SDS011;6548;49.996;8.238;2024-01-07T01:07:48;7.63;;;4.13;;
12966;SDS011;6548;49.996;8.238;2024-01-07T01:10:14;6.82;;;3.53;;
12966;SDS011;6548;49.996;8.238;2024-01-07T01:12:41;6.68;;;4.28;;
12966;SDS011;6548;49.996;8.238;2024-01-07T01:15:07;5.45;;;3.83;;
12966;SDS011;6548;49.996;8.238;2024-01-07T01:17:33;6.20;;;3.72;;
12966;SDS011;6548;49.996;8.238;2024-01-07T01:19:59;7.30;;;3.75;;
12966;SDS011;6548;49.996;8.238;2024-01-07T01:22:24;5.20;;;3.22;;
12966;SDS011;6548;49.996;8.238;2024-01-07T01:24:50;7.47;;;3.88;;
12966;SDS011;6548;49.996;8.238;2024-01-07T01:27:17;7.32;;;4.43;;
12966;SDS011;6548;49.996;8.238;2024-01-07T01:29:43;7.95;;;4.22;;
12966;SDS011;6548;49.996;8.238;2024-01-07T01:32:09;7.30;;;4.50;;
12966;SDS011;6548;49.996;8.238;2024-01-07T01:34:35;4.82;;;3.55;;
12966;SDS011;6548;49.996;8.238;2024-01-07T01:37:00;5.43;;;3.90;;
12966;SDS011;6548;49.996;8.238;2024-01-07T01:39:26;9.68;;;4.50;;
12966;SDS011;6548;49.996;8.238;2024-01-07T01:41:52;6.47;;;4.45;;
12966;SDS011;6548;49.996;8.238;2024-01-07T01:44:18;8.25;;;3.92;;
12966;SDS011;6548;49.996;8.238;2024-01-07T01:46:44;6.50;;;3.88;;
12966;SDS011;6548;49.996;8.238;2024-01-07T01:49:10;6.85;;;4.78;;
12966;SDS011;6548;49.996;8.238;2024-01-07T01:51:37;8.38;;;4.50;;
12966;SDS011;6548;49.996;8.238;2024-01-07T01:54:03;6.72;;;4.75;;
12966;SDS011;6548;49.996;8.238;2024-01-07T01:56:29;6.10;;;4.00;;
12966;SDS011;6548;49.996;8.238;2024-01-07T01:58:56;7.63;;;4.57;;
12966;SDS011;6548;49.996;8.238;2024-01-07T02:01:22;6.18;;;3.95;;
12966;SDS011;6548;49.996;8.238;2024-01-07T02:03:48;5.55;;;3.90;;
12966;SDS011;6548;49.996;8.238;2024-01-07T02:06:14;8.43;;;4.38;;
12966;SDS011;6548;49.996;8.238;2024-01-07T02:08:41;5.82;;;3.75;;
12966;SDS011;6548;49.996;8.238;2024-01-07T02:11:19;7.50;;;3.75;;
12966;SDS011;6548;49.996;8.238;2024-01-07T02:13:46;7.13;;;4.50;;
12966;SDS011;6548;49.996;8.238;2024-01-07T02:16:12;7.82;;;4.45;;
12966;SDS011;6548;49.996;8.238;2024-01-07T02:18:38;7.18;;;4.13;;
12966;SDS011;6548;49.996;8.238;2024-01-07T02:21:09;5.70;;;3.65;;
12966;SDS011;6548;49.996;8.238;2024-01-07T02:23:36;7.03;;;4.25;;
12966;SDS011;6548;49.996;8.238;2024-01-07T02:26:02;7.00;;;4.38;;
12966;SDS011;6548;49.996;8.238;2024-01-07T02:28:28;5.57;;;4.28;;
12966;SDS011;6548;49.996;8.238;2024-01-07T02:30:54;5.03;;;3.80;;
12966;SDS011;6548;49.996;8.238;2024-01-07T02:33:20;7.28;;;3.83;;
12966;SDS011;6548;49.996;8.238;2024-01-07T02:35:45;6.38;;;4.10;;
12966;SDS011;6548;49.996;8.238;2024-01-07T02:38:11;6.50;;;4.18;;
12966;SDS011;6548;49.996;8.238;2024-01-07T02:40:36;5.93;;;3.97;;
12966;SDS011;6548;49.996;8.238;2024-01-07T02:43:02;6.13;;;3.90;;
12966;SDS011;6548;49.996;8.238;2024-01-07T02:45:27;5.00;;;3.47;;
12966;SDS011;6548;49.996;8.238;2024-01-07T02:47:53;5.50;;;3.75;;
12966;SDS011;6548;49.996;8.238;2024-01-07T02:50:18;5.05;;;3.75;;
12966;SDS011;6548;49.996;8.238;2024-01-07T02:52:44;5.30;;;3.50;;
12966;SDS011;6548;49.996;8.238;2024-01-07T02:55:09;4.88;;;3.83;;
12966;SDS011;6548;49.996;8.238;2024-01-07T02:57:35;5.40;;;3.42;;
12966;SDS011;6548;49.996;8.238;2024-01-07T03:00:00;6.95;;;3.97;;
12966;SDS011;6548;49.996;8.238;2024-01-07T03:02:27;5.22;;;3.60;;
12966;SDS011;6548;49.996;8.238;2024-01-07T03:04:53;5.97;;;3.95;;
12966;SDS011;6548;49.996;8.238;2024-01-07T03:07:18;6.93;;;4.13;;
12966;SDS011;6548;49.996;8.238;2024-01-07T03:09:44;5.28;;;3.85;;
12966;SDS011;6548;49.996;8.238;2024-01-07T03:12:09;5.55;;;3.28;;
12966;SDS011;6548;49.996;8.238;2024-01-07T03:14:35;5.78;;;3.60;;
12966;SDS011;6548;49.996;8.238;2024-01-07T03:17:00;6.28;;;4.03;;
12966;SDS011;6548;49.996;8.238;2024-01-07T03:19:26;5.05;;;3.42;;
12966;SDS011;6548;49.996;8.238;2024-01-07T03:21:51;4.65;;;3.55;;
12966;SDS011;6548;49.996;8.238;2024-01-07T03:24:17;5.13;;;3.75;;
12966;SDS011;6548;49.996;8.238;2024-01-07T03:26:42;5.97;;;3.88;;
12966;SDS011;6548;49.996;8.238;2024-01-07T03:29:08;4.93;;;3.70;;
12966;SDS011;6548;49.996;8.238;2024-01-07T03:31:34;5.03;;;3.13;;
12966;SDS011;6548;49.996;8.238;2024-01-07T03:33:59;5.55;;;3.55;;
12966;SDS011;6548;49.996;8.238;2024-01-07T03:36:25;4.60;;;3.20;;
12966;SDS011;6548;49.996;8.238;2024-01-07T03:38:50;6.50;;;4.40;;
12966;SDS011;6548;49.996;8.238;2024-01-07T03:41:17;5.22;;;3.60;;
12966;SDS011;6548;49.996;8.238;2024-01-07T03:43:44;5.45;;;3.65;;
12966;SDS011;6548;49.996;8.238;2024-01-07T03:46:11;6.40;;;3.80;;
12966;SDS011;6548;49.996;8.238;2024-01-07T03:48:36;4.93;;;3.50;;
12966;SDS011;6548;49.996;8.238;2024-01-07T03:51:02;5.15;;;3.30;;
12966;SDS011;6548;49.996;8.238;2024-01-07T03:53:27;5.35;;;3.50;;
12966;SDS011;6548;49.996;8.238;2024-01-07T03:55:53;4.72;;;3.65;;
12966;SDS011;6548;49.996;8.238;2024-01-07T03:58:18;6.70;;;3.75;;
12966;SDS011;6548;49.996;8.238;2024-01-07T04:00:44;5.60;;;3.78;;
12966;SDS011;6548;49.996;8.238;2024-01-07T04:03:09;5.57;;;3.42;;
12966;SDS011;6548;49.996;8.238;2024-01-07T04:05:35;4.63;;;3.63;;
12966;SDS011;6548;49.996;8.238;2024-01-07T04:08:01;5.63;;;3.28;;
12966;SDS011;6548;49.996;8.238;2024-01-07T04:10:27;6.88;;;3.55;;
12966;SDS011;6548;49.996;8.238;2024-01-07T04:12:53;3.85;;;2.80;;
12966;SDS011;6548;49.996;8.238;2024-01-07T04:15:19;5.13;;;3.05;;
12966;SDS011;6548;49.996;8.238;2024-01-07T04:17:44;4.28;;;2.97;;
12966;SDS011;6548;49.996;8.238;2024-01-07T04:20:12;4.53;;;3.22;;
12966;SDS011;6548;49.996;8.238;2024-01-07T04:22:39;6.68;;;3.50;;
12966;SDS011;6548;49.996;8.238;2024-01-07T04:25:04;4.25;;;3.15;;
12966;SDS011;6548;49.996;8.238;2024-01-07T04:27:33;5.30;;;3.38;;
12966;SDS011;6548;49.996;8.238;2024-01-07T04:30:00;3.40;;;2.92;;
12966;SDS011;6548;49.996;8.238;2024-01-07T04:32:25;7.57;;;3.90;;
12966;SDS011;6548;49.996;8.238;2024-01-07T04:34:51;6.25;;;4.05;;
12966;SDS011;6548;49.996;8.238;2024-01-07T04:37:17;5.43;;;3.47;;
12966;SDS011;6548;49.996;8.238;2024-01-07T04:39:42;5.30;;;3.35;;
12966;SDS011;6548;49.996;8.238;2024-01-07T04:42:08;5.55;;;3.55;;
12966;SDS011;6548;49.996;8.238;2024-01-07T04:44:33;5.22;;;3.08;;
12966;SDS011;6548;49.996;8.238;2024-01-07T04:46:59;6.00;;;3.45;;
12966;SDS011;6548;49.996;8.238;2024-01-07T04:49:24;5.93;;;3.33;;
12966;SDS011;6548;49.996;8.238;2024-01-07T04:51:50;5.13;;;3.28;;
12966;SDS011;6548;49.996;8.238;2024-01-07T04:54:15;5.07;;;3.25;;
12966;SDS011;6548;49.996;8.238;2024-01-07T04:56:41;4.40;;;3.25;;
12966;SDS011;6548;49.996;8.238;2024-01-07T04:59:06;6.00;;;3.70;;
12966;SDS011;6548;49.996;8.238;2024-01-07T05:01:32;4.43;;;3.05;;
12966;SDS011;6548;49.996;8.238;2024-01-07T05:03:58;4.88;;;3.10;;
12966;SDS011;6548;49.996;8.238;2024-01-07T05:06:24;4.18;;;2.90;;
12966;SDS011;6548;49.996;8.238;2024-01-07T05:08:49;4.13;;;2.75;;
12966;SDS011;6548;49.996;8.238;2024-01-07T05:11:15;5.30;;;2.92;;
12966;SDS011;6548;49.996;8.238;2024-01-07T05:13:42;4.65;;;3.13;;
12966;SDS011;6548;49.996;8.238;2024-01-07T05:16:07;4.50;;;3.28;;
12966;SDS011;6548;49.996;8.238;2024-01-07T05:18:33;5.38;;;3.60;;
12966;SDS011;6548;49.996;8.238;2024-01-07T05:20:58;4.30;;;3.08;;
12966;SDS011;6548;49.996;8.238;2024-01-07T05:23:24;4.60;;;3.70;;
12966;SDS011;6548;49.996;8.238;2024-01-07T05:25:49;5.95;;;3.28;;
12966;SDS011;6548;49.996;8.238;2024-01-07T05:28:15;5.00;;;3.28;;
12966;SDS011;6548;49.996;8.238;2024-01-07T05:30:44;4.32;;;3.35;;
12966;SDS011;6548;49.996;8.238;2024-01-07T05:33:09;5.35;;;3.22;;
12966;SDS011;6548;49.996;8.238;2024-01-07T05:35:35;4.00;;;3.03;;
12966;SDS011;6548;49.996;8.238;2024-01-07T05:38:01;4.82;;;2.85;;
12966;SDS011;6548;49.996;8.238;2024-01-07T05:40:26;5.85;;;3.33;;
12966;SDS011;6548;49.996;8.238;2024-01-07T05:42:52;5.95;;;3.78;;
12966;SDS011;6548;49.996;8.238;2024-01-07T05:45:17;4.32;;;3.35;;
12966;SDS011;6548;49.996;8.238;2024-01-07T05:47:43;5.53;;;3.47;;
12966;SDS011;6548;49.996;8.238;2024-01-07T05:50:08;4.85;;;2.72;;
12966;SDS011;6548;49.996;8.238;2024-01-07T05:52:35;5.70;;;3.15;;
12966;SDS011;6548;49.996;8.238;2024-01-07T05:55:01;5.75;;;2.53;;
12966;SDS011;6548;49.996;8.238;2024-01-07T05:57:26;4.65;;;3.13;;
12966;SDS011;6548;49.996;8.238;2024-01-07T05:59:52;3.75;;;2.40;;
12966;SDS011;6548;49.996;8.238;2024-01-07T06:02:17;3.15;;;2.50;;
12966;SDS011;6548;49.996;8.238;2024-01-07T06:04:43;3.65;;;2.60;;
12966;SDS011;6548;49.996;8.238;2024-01-07T06:07:09;5.40;;;3.72;;
12966;SDS011;6548;49.996;8.238;2024-01-07T06:09:34;2.58;;;1.88;;
12966;SDS011;6548;49.996;8.238;2024-01-07T06:12:00;4.07;;;2.20;;
12966;SDS011;6548;49.996;8.238;2024-01-07T06:14:26;4.32;;;2.67;;
12966;SDS011;6548;49.996;8.238;2024-01-07T06:16:51;3.75;;;2.13;;
12966;SDS011;6548;49.996;8.238;2024-01-07T06:19:17;4.18;;;2.20;;
12966;SDS011;6548;49.996;8.238;2024-01-07T06:21:43;5.18;;;3.30;;
12966;SDS011;6548;49.996;8.238;2024-01-07T06:24:08;4.55;;;2.33;;
12966;SDS011;6548;49.996;8.238;2024-01-07T06:26:34;4.82;;;3.15;;
12966;SDS011;6548;49.996;8.238;2024-01-07T06:29:00;4.40;;;2.65;;
12966;SDS011;6548;49.996;8.238;2024-01-07T06:31:26;4.93;;;2.80;;
12966;SDS011;6548;49.996;8.238;2024-01-07T06:33:52;4.72;;;3.25;;
12966;SDS011;6548;49.996;8.238;2024-01-07T06:36:17;5.38;;;3.40;;
12966;SDS011;6548;49.996;8.238;2024-01-07T06:38:43;4.40;;;2.92;;
12966;SDS011;6548;49.996;8.238;2024-01-07T06:41:12;5.32;;;2.90;;
12966;SDS011;6548;49.996;8.238;2024-01-07T06:43:37;6.00;;;3.72;;
12966;SDS011;6548;49.996;8.238;2024-01-07T06:46:03;7.18;;;4.13;;
12966;SDS011;6548;49.996;8.238;2024-01-07T06:48:29;6.35;;;3.83;;
12966;SDS011;6548;49.996;8.238;2024-01-07T06:50:54;8.43;;;4.05;;
12966;SDS011;6548;49.996;8.238;2024-01-07T06:53:20;8.00;;;5.10;;
12966;SDS011;6548;49.996;8.238;2024-01-07T06:55:46;7.85;;;4.38;;
12966;SDS011;6548;49.996;8.238;2024-01-07T06:58:12;7.60;;;4.25;;
12966;SDS011;6548;49.996;8.238;2024-01-07T07:00:37;8.02;;;5.18;;
12966;SDS011;6548;49.996;8.238;2024-01-07T07:03:03;8.65;;;5.28;;
12966;SDS011;6548;49.996;8.238;2024-01-07T07:05:30;10.13;;;5.30;;
12966;SDS011;6548;49.996;8.238;2024-01-07T07:07:55;8.60;;;5.20;;
12966;SDS011;6548;49.996;8.238;2024-01-07T07:10:21;10.65;;;6.05;;
12966;SDS011;6548;49.996;8.238;2024-01-07T07:12:47;10.02;;;5.78;;
12966;SDS011;6548;49.996;8.238;2024-01-07T07:15:12;10.65;;;5.28;;
12966;SDS011;6548;49.996;8.238;2024-01-07T07:17:38;11.10;;;6.10;;
12966;SDS011;6548;49.996;8.238;2024-01-07T07:20:04;10.80;;;6.22;;
12966;SDS011;6548;49.996;8.238;2024-01-07T07:22:31;10.02;;;6.22;;
12966;SDS011;6548;49.996;8.238;2024-01-07T07:24:56;11.45;;;6.45;;
12966;SDS011;6548;49.996;8.238;2024-01-07T07:27:22;10.13;;;5.45;;
12966;SDS011;6548;49.996;8.238;2024-01-07T07:29:47;10.98;;;5.70;;
12966;SDS011;6548;49.996;8.238;2024-01-07T07:32:13;10.63;;;5.95;;
12966;SDS011;6548;49.996;8.238;2024-01-07T07:34:38;10.65;;;6.30;;
12966;SDS011;6548;49.996;8.238;2024-01-07T07:37:04;11.45;;;6.15;;
12966;SDS011;6548;49.996;8.238;2024-01-07T07:39:29;10.68;;;5.63;;
12966;SDS011;6548;49.996;8.238;2024-01-07T07:41:55;10.88;;;6.70;;
12966;SDS011;6548;49.996;8.238;2024-01-07T07:44:20;10.30;;;6.72;;
12966;SDS011;6548;49.996;8.238;2024-01-07T07:46:46;11.10;;;5.95;;
12966;SDS011;6548;49.996;8.238;2024-01-07T07:49:11;9.70;;;5.15;;
12966;SDS011;6548;49.996;8.238;2024-01-07T07:51:37;7.38;;;4.45;;
12966;SDS011;6548;49.996;8.238;2024-01-07T07:54:03;9.00;;;4.45;;
12966;SDS011;6548;49.996;8.238;2024-01-07T07:56:29;7.78;;;4.90;;
12966;SDS011;6548;49.996;8.238;2024-01-07T07:58:54;6.75;;;4.80;;
12966;SDS011;6548;49.996;8.238;2024-01-07T08:01:20;10.48;;;5.35;;
12966;SDS011;6548;49.996;8.238;2024-01-07T08:03:45;9.05;;;4.85;;
12966;SDS011;6548;49.996;8.238;2024-01-07T08:06:11;7.78;;;4.93;;
12966;SDS011;6548;49.996;8.238;2024-01-07T08:08:37;8.93;;;5.28;;
12966;SDS011;6548;49.996;8.238;2024-01-07T08:11:02;8.15;;;4.88;;
12966;SDS011;6548;49.996;8.238;2024-01-07T08:13:31;7.90;;;5.15;;
12966;SDS011;6548;49.996;8.238;2024-01-07T08:15:56;12.80;;;5.55;;
12966;SDS011;6548;49.996;8.238;2024-01-07T08:18:22;7.75;;;4.55;;
12966;SDS011;6548;49.996;8.238;2024-01-07T08:20:47;5.50;;;4.22;;
12966;SDS011;6548;49.996;8.238;2024-01-07T08:23:13;7.70;;;4.57;;
12966;SDS011;6548;49.996;8.238;2024-01-07T08:25:38;6.65;;;4.47;;
12966;SDS011;6548;49.996;8.238;2024-01-07T08:28:04;5.68;;;3.80;;
12966;SDS011;6548;49.996;8.238;2024-01-07T08:30:29;6.80;;;4.38;;
12966;SDS011;6548;49.996;8.238;2024-01-07T08:32:55;6.70;;;4.45;;
12966;SDS011;6548;49.996;8.238;2024-01-07T08:35:21;6.25;;;4.40;;
12966;SDS011;6548;49.996;8.238;2024-01-07T08:37:47;6.53;;;4.25;;
12966;SDS011;6548;49.996;8.238;2024-01-07T08:40:12;7.55;;;4.40;;
12966;SDS011;6548;49.996;8.238;2024-01-07T08:42:38;6.82;;;4.45;;
12966;SDS011;6548;49.996;8.238;2024-01-07T08:45:04;8.10;;;4.43;;
12966;SDS011;6548;49.996;8.238;2024-01-07T08:47:30;7.63;;;4.75;;
12966;SDS011;6548;49.996;8.238;2024-01-07T08:49:56;6.68;;;4.03;;
12966;SDS011;6548;49.996;8.238;2024-01-07T08:52:22;6.57;;;4.60;;
12966;SDS011;6548;49.996;8.238;2024-01-07T08:54:48;6.15;;;3.58;;
12966;SDS011;6548;49.996;8.238;2024-01-07T08:57:14;8.85;;;4.43;;
12966;SDS011;6548;49.996;8.238;2024-01-07T08:59:39;5.28;;;3.85;;
12966;SDS011;6548;49.996;8.238;2024-01-07T09:02:05;7.82;;;4.63;;
12966;SDS011;6548;49.996;8.238;2024-01-07T09:04:30;9.50;;;4.60;;
12966;SDS011;6548;49.996;8.238;2024-01-07T09:06:57;9.10;;;4.97;;
12966;SDS011;6548;49.996;8.238;2024-01-07T09:09:22;8.63;;;4.88;;
12966;SDS011;6548;49.996;8.238;2024-01-07T09:11:49;7.82;;;5.10;;
12966;SDS011;6548;49.996;8.238;2024-01-07T09:14:14;8.70;;;4.93;;
12966;SDS011;6548;49.996;8.238;2024-01-07T09:16:40;7.22;;;4.20;;
12966;SDS011;6548;49.996;8.238;2024-01-07T09:19:05;7.95;;;4.28;;
12966;SDS011;6548;49.996;8.238;2024-01-07T09:21:31;8.43;;;4.47;;
12966;SDS011;6548;49.996;8.238;2024-01-07T09:23:56;7.03;;;4.25;;
12966;SDS011;6548;49.996;8.238;2024-01-07T09:26:22;7.53;;;4.45;;
12966;SDS011;6548;49.996;8.238;2024-01-07T09:28:47;7.50;;;4.47;;
12966;SDS011;6548;49.996;8.238;2024-01-07T09:31:13;8.77;;;4.97;;
12966;SDS011;6548;49.996;8.238;2024-01-07T09:33:38;8.70;;;5.15;;
12966;SDS011;6548;49.996;8.238;2024-01-07T09:36:04;8.20;;;4.45;;
12966;SDS011;6548;49.996;8.238;2024-01-07T09:38:31;8.68;;;5.28;;
12966;SDS011;6548;49.996;8.238;2024-01-07T09:40:57;9.23;;;5.55;;
12966;SDS011;6548;49.996;8.238;2024-01-07T09:43:23;7.88;;;4.65;;
12966;SDS011;6548;49.996;8.238;2024-01-07T09:45:48;10.07;;;5.35;;
12966;SDS011;6548;49.996;8.238;2024-01-07T09:48:15;9.85;;;6.20;;
12966;SDS011;6548;49.996;8.238;2024-01-07T09:50:41;10.00;;;5.75;;
12966;SDS011;6548;49.996;8.238;2024-01-07T09:53:07;8.93;;;6.25;;
12966;SDS011;6548;49.996;8.238;2024-01-07T09:55:37;11.60;;;5.85;;
12966;SDS011;6548;49.996;8.238;2024-01-07T09:58:10;12.90;;;6.57;;
12966;SDS011;6548;49.996;8.238;2024-01-07T10:00:35;10.18;;;5.65;;
12966;SDS011;6548;49.996;8.238;2024-01-07T10:03:02;11.63;;;5.95;;
12966;SDS011;6548;49.996;8.238;2024-01-07T10:05:28;8.15;;;5.43;;
12966;SDS011;6548;49.996;8.238;2024-01-07T10:07:54;10.75;;;5.43;;
12966;SDS011;6548;49.996;8.238;2024-01-07T10:10:22;10.88;;;6.15;;
12966;SDS011;6548;49.996;8.238;2024-01-07T10:12:47;10.75;;;5.78;;
12966;SDS011;6548;49.996;8.238;2024-01-07T10:15:13;10.63;;;5.70;;
12966;SDS011;6548;49.996;8.238;2024-01-07T10:17:41;8.07;;;5.43;;
12966;SDS011;6548;49.996;8.238;2024-01-07T10:20:07;8.88;;;5.45;;
12966;SDS011;6548;49.996;8.238;2024-01-07T10:22:35;11.15;;;5.05;;
12966;SDS011;6548;49.996;8.238;2024-01-07T10:25:03;8.60;;;5.40;;
12966;SDS011;6548;49.996;8.238;2024-01-07T10:27:29;8.38;;;5.97;;
12966;SDS011;6548;49.996;8.238;2024-01-07T10:29:58;6.32;;;4.60;;
12966;SDS011;6548;49.996;8.238;2024-01-07T10:32:24;7.85;;;5.53;;
12966;SDS011;6548;49.996;8.238;2024-01-07T10:34:49;9.25;;;5.65;;
12966;SDS011;6548;49.996;8.238;2024-01-07T10:37:19;6.82;;;4.47;;
12966;SDS011;6548;49.996;8.238;2024-01-07T10:39:45;8.10;;;5.03;;
12966;SDS011;6548;49.996;8.238;2024-01-07T10:42:10;10.88;;;5.25;;
12966;SDS011;6548;49.996;8.238;2024-01-07T10:44:37;9.95;;;5.10;;
12966;SDS011;6548;49.996;8.238;2024-01-07T10:47:04;8.20;;;4.85;;
12966;SDS011;6548;49.996;8.238;2024-01-07T10:49:31;7.90;;;4.60;;
12966;SDS011;6548;49.996;8.238;2024-01-07T10:52:04;9.82;;;5.57;;
12966;SDS011;6548;49.996;8.238;2024-01-07T10:54:33;7.82;;;5.13;;
12966;SDS011;6548;49.996;8.238;2024-01-07T10:59:59;7.60;;;4.82;;
12966;SDS011;6548;49.996;8.238;2024-01-07T11:02:25;8.80;;;4.82;;
12966;SDS011;6548;49.996;8.238;2024-01-07T11:07:38;8.63;;;5.40;;
12966;SDS011;6548;49.996;8.238;2024-01-07T11:10:20;8.48;;;5.60;;
12966;SDS011;6548;49.996;8.238;2024-01-07T11:12:56;7.78;;;4.93;;
12966;SDS011;6548;49.996;8.238;2024-01-07T11:18:17;9.77;;;5.10;;
12966;SDS011;6548;49.996;8.238;2024-01-07T11:20:43;8.38;;;5.80;;
12966;SDS011;6548;49.996;8.238;2024-01-07T11:26:01;7.22;;;5.15;;
12966;SDS011;6548;49.996;8.238;2024-01-07T11:31:42;7.00;;;4.75;;
12966;SDS011;6548;49.996;8.238;2024-01-07T11:34:08;8.23;;;4.93;;
12966;SDS011;6548;49.996;8.238;2024-01-07T11:36:37;8.50;;;5.10;;
12966;SDS011;6548;49.996;8.238;2024-01-07T11:39:04;7.82;;;5.05;;
12966;SDS011;6548;49.996;8.238;2024-01-07T11:41:33;7.20;;;4.88;;
12966;SDS011;6548;49.996;8.238;2024-01-07T11:44:00;8.95;;;5.75;;
12966;SDS011;6548;49.996;8.238;2024-01-07T11:46:26;10.02;;;5.28;;
12966;SDS011;6548;49.996;8.238;2024-01-07T11:48:53;7.70;;;4.78;;
12966;SDS011;6548;49.996;8.238;2024-01-07T11:51:30;10.23;;;4.82;;
12966;SDS011;6548;49.996;8.238;2024-01-07T11:53:57;7.47;;;4.70;;
12966;SDS011;6548;49.996;8.238;2024-01-07T11:56:24;7.53;;;4.70;;
12966;SDS011;6548;49.996;8.238;2024-01-07T11:58:51;6.47;;;4.60;;
12966;SDS011;6548;49.996;8.238;2024-01-07T12:01:16;7.60;;;4.88;;
12966;SDS011;6548;49.996;8.238;2024-01-07T12:03:43;8.55;;;4.78;;
12966;SDS011;6548;49.996;8.238;2024-01-07T12:06:09;8.15;;;4.78;;
12966;SDS011;6548;49.996;8.238;2024-01-07T12:08:45;8.07;;;5.07;;
12966;SDS011;6548;49.996;8.238;2024-01-07T12:11:11;11.07;;;6.07;;
12966;SDS011;6548;49.996;8.238;2024-01-07T12:13:38;7.85;;;4.88;;
12966;SDS011;6548;49.996;8.238;2024-01-07T12:16:05;7.32;;;4.45;;
12966;SDS011;6548;49.996;8.238;2024-01-07T12:18:31;6.80;;;4.80;;
12966;SDS011;6548;49.996;8.238;2024-01-07T12:20:57;7.32;;;4.65;;
12966;SDS011;6548;49.996;8.238;2024-01-07T12:23:23;7.72;;;5.03;;
12966;SDS011;6548;49.996;8.238;2024-01-07T12:25:50;7.07;;;4.88;;
12966;SDS011;6548;49.996;8.238;2024-01-07T12:28:19;8.85;;;5.03;;
12966;SDS011;6548;49.996;8.238;2024-01-07T12:30:45;9.05;;;5.85;;
12966;SDS011;6548;49.996;8.238;2024-01-07T12:33:15;7.00;;;4.70;;
12966;SDS011;6548;49.996;8.238;2024-01-07T12:35:44;8.77;;;5.65;;
12966;SDS011;6548;49.996;8.238;2024-01-07T12:38:10;7.85;;;4.70;;
12966;SDS011;6548;49.996;8.238;2024-01-07T12:40:35;8.20;;;5.75;;
12966;SDS011;6548;49.996;8.238;2024-01-07T12:43:01;8.18;;;6.47;;
12966;SDS011;6548;49.996;8.238;2024-01-07T12:45:27;18.33;;;11.20;;
12966;SDS011;6548;49.996;8.238;2024-01-07T12:47:52;12.55;;;7.90;;
12966;SDS011;6548;49.996;8.238;2024-01-07T12:50:20;9.85;;;6.60;;
12966;SDS011;6548;49.996;8.238;2024-01-07T12:52:48;9.57;;;5.97;;
12966;SDS011;6548;49.996;8.238;2024-01-07T12:55:13;11.05;;;5.70;;
12966;SDS011;6548;49.996;8.238;2024-01-07T12:57:39;11.38;;;5.63;;
12966;SDS011;6548;49.996;8.238;2024-01-07T13:00:04;9.68;;;5.03;;
12966;SDS011;6548;49.996;8.238;2024-01-07T13:02:31;8.52;;;4.70;;
12966;SDS011;6548;49.996;8.238;2024-01-07T13:04:58;7.28;;;4.30;;
12966;SDS011;6548;49.996;8.238;2024-01-07T13:07:23;9.88;;;4.88;;
12966;SDS011;6548;49.996;8.238;2024-01-07T13:09:49;8.52;;;4.88;;
12966;SDS011;6548;49.996;8.238;2024-01-07T13:12:14;11.48;;;5.07;;
12966;SDS011;6548;49.996;8.238;2024-01-07T13:14:40;8.70;;;5.25;;
12966;SDS011;6548;49.996;8.238;2024-01-07T13:17:07;19.02;;;8.00;;
12966;SDS011;6548;49.996;8.238;2024-01-07T13:19:33;17.70;;;8.07;;
12966;SDS011;6548;49.996;8.238;2024-01-07T13:21:59;30.00;;;14.05;;
12966;SDS011;6548;49.996;8.238;2024-01-07T13:24:26;26.83;;;13.48;;
12966;SDS011;6548;49.996;8.238;2024-01-07T13:26:52;36.03;;;17.23;;
12966;SDS011;6548;49.996;8.238;2024-01-07T13:29:18;12.30;;;7.45;;
12966;SDS011;6548;49.996;8.238;2024-01-07T13:31:43;20.67;;;11.88;;
12966;SDS011;6548;49.996;8.238;2024-01-07T13:34:09;11.95;;;6.30;;
12966;SDS011;6548;49.996;8.238;2024-01-07T13:36:35;11.07;;;5.93;;
12966;SDS011;6548;49.996;8.238;2024-01-07T13:39:00;11.55;;;6.53;;
12966;SDS011;6548;49.996;8.238;2024-01-07T13:41:27;10.75;;;5.20;;
12966;SDS011;6548;49.996;8.238;2024-01-07T13:43:57;11.48;;;7.10;;
12966;SDS011;6548;49.996;8.238;2024-01-07T13:46:22;10.32;;;5.05;;
12966;SDS011;6548;49.996;8.238;2024-01-07T13:48:51;10.48;;;5.05;;
12966;SDS011;6548;49.996;8.238;2024-01-07T13:51:19;7.45;;;4.95;;
12966;SDS011;6548;49.996;8.238;2024-01-07T13:53:44;7.80;;;4.57;;
12966;SDS011;6548;49.996;8.238;2024-01-07T13:56:13;6.50;;;4.25;;
12966;SDS011;6548;49.996;8.238;2024-01-07T13:58:39;7.82;;;3.85;;
12966;SDS011;6548;49.996;8.238;2024-01-07T14:01:04;7.97;;;4.47;;
12966;SDS011;6548;49.996;8.238;2024-01-07T14:03:32;9.38;;;4.43;;
12966;SDS011;6548;49.996;8.238;2024-01-07T14:05:58;8.48;;;4.55;;
12966;SDS011;6548;49.996;8.238;2024-01-07T14:08:25;6.30;;;4.05;;
12966;SDS011;6548;49.996;8.238;2024-01-07T14:10:51;7.72;;;4.93;;
12966;SDS011;6548;49.996;8.238;2024-01-07T14:13:16;7.13;;;4.57;;
12966;SDS011;6548;49.996;8.238;2024-01-07T14:15:42;8.85;;;4.80;;
12966;SDS011;6548;49.996;8.238;2024-01-07T14:18:08;8.43;;;4.90;;
12966;SDS011;6548;49.996;8.238;2024-01-07T14:20:35;8.02;;;3.97;;
12966;SDS011;6548;49.996;8.238;2024-01-07T14:23:00;7.85;;;4.32;;
12966;SDS011;6548;49.996;8.238;2024-01-07T14:25:26;9.55;;;5.68;;
12966;SDS011;6548;49.996;8.238;2024-01-07T14:27:51;8.45;;;4.72;;
12966;SDS011;6548;49.996;8.238;2024-01-07T14:30:17;7.05;;;4.90;;
12966;SDS011;6548;49.996;8.238;2024-01-07T14:32:43;9.63;;;5.60;;
12966;SDS011;6548;49.996;8.238;2024-01-07T14:35:09;7.47;;;5.25;;
12966;SDS011;6548;49.996;8.238;2024-01-07T14:37:36;13.95;;;5.00;;
12966;SDS011;6548;49.996;8.238;2024-01-07T14:40:02;12.05;;;6.10;;
12966;SDS011;6548;49.996;8.238;2024-01-07T14:42:29;7.20;;;4.25;;
12966;SDS011;6548;49.996;8.238;2024-01-07T14:44:54;7.05;;;5.03;;
12966;SDS011;6548;49.996;8.238;2024-01-07T14:47:21;7.22;;;4.43;;
12966;SDS011;6548;49.996;8.238;2024-01-07T14:49:47;7.15;;;4.53;;
12966;SDS011;6548;49.996;8.238;2024-01-07T14:52:12;6.47;;;4.60;;
12966;SDS011;6548;49.996;8.238;2024-01-07T14:54:38;7.20;;;4.43;;
12966;SDS011;6548;49.996;8.238;2024-01-07T14:57:03;7.15;;;4.28;;
12966;SDS011;6548;49.996;8.238;2024-01-07T14:59:29;9.07;;;4.65;;
12966;SDS011;6548;49.996;8.238;2024-01-07T15:01:55;8.65;;;4.55;;
12966;SDS011;6548;49.996;8.238;2024-01-07T15:04:20;8.55;;;3.78;;
12966;SDS011;6548;49.996;8.238;2024-01-07T15:06:46;5.93;;;3.80;;
12966;SDS011;6548;49.996;8.238;2024-01-07T15:09:13;6.28;;;3.75;;